createdAt,value
2023-01-09T00:01:56.178Z,31.15
2023-01-09T00:04:23.920Z,35.28
2023-01-09T00:06:54.822Z,39.78
2023-01-09T00:09:26.201Z,30.90
2023-01-09T00:11:55.190Z,38.20
2023-01-09T00:14:24.104Z,33.53
2023-01-09T00:16:55.306Z,29.63
2023-01-09T00:19:23.345Z,35.63
2023-01-09T00:21:51.257Z,35.42
2023-01-09T00:24:19.712Z,34.58
2023-01-09T00:26:47.575Z,32.33
2023-01-09T00:29:16.079Z,25.42
2023-01-09T00:31:43.833Z,32.90
2023-01-09T00:34:12.296Z,26.85
2023-01-09T00:36:40.200Z,35.92
2023-01-09T00:39:08.108Z,29.83
2023-01-09T00:41:38.499Z,38.10
2023-01-09T00:44:15.249Z,29.70
2023-01-09T00:46:45.856Z,31.75
2023-01-09T00:49:13.756Z,26.15
2023-01-09T00:51:41.895Z,25.45
2023-01-09T00:54:11.342Z,31.98
2023-01-09T00:56:39.552Z,37.30
2023-01-09T00:59:08.009Z,30.83
2023-01-09T01:01:36.049Z,39.40
2023-01-09T01:04:24.067Z,34.30
2023-01-09T01:07:11.183Z,28.77
2023-01-09T01:09:39.746Z,31.98
2023-01-09T01:12:08.989Z,32.60
2023-01-09T01:14:37.288Z,29.58
2023-01-09T01:17:05.956Z,32.30
2023-01-09T01:19:35.191Z,28.40
2023-01-09T01:22:03.622Z,34.33
2023-01-09T01:24:31.776Z,35.53
2023-01-09T01:26:59.998Z,26.73
2023-01-09T01:29:28.668Z,28.60
2023-01-09T01:31:56.473Z,35.22
2023-01-09T01:34:25.888Z,34.38
2023-01-09T01:36:53.738Z,32.13
2023-01-09T01:39:21.954Z,28.90
2023-01-09T01:41:49.851Z,41.38
2023-01-09T01:44:54.892Z,31.23
2023-01-09T01:47:24.148Z,35.92
2023-01-09T01:49:55.259Z,24.83
2023-01-09T01:52:25.123Z,30.08
2023-01-09T01:54:53.201Z,28.95
2023-01-09T01:57:20.951Z,34.20
2023-01-09T01:59:54.157Z,34.78
2023-01-09T02:02:24.007Z,45.45
2023-01-09T02:04:52.657Z,33.15
2023-01-09T02:07:20.703Z,36.08
2023-01-09T02:09:48.805Z,34.30
2023-01-09T02:12:25.525Z,34.67
2023-01-09T02:15:09.921Z,37.85
2023-01-09T02:18:05.841Z,34.72
2023-01-09T02:23:25.600Z,25.33
2023-01-09T02:26:23.797Z,32.03
2023-01-09T02:29:20.191Z,44.10
2023-01-09T02:32:20.698Z,36.38
2023-01-09T02:35:17.886Z,31.77
2023-01-09T02:38:18.832Z,32.22
2023-01-09T02:40:57.786Z,37.08
2023-01-09T02:43:26.638Z,37.30
2023-01-09T02:46:01.283Z,33.97
2023-01-09T02:48:29.768Z,35.58
2023-01-09T02:51:20.471Z,31.08
2023-01-09T02:54:13.863Z,35.22
2023-01-09T02:56:45.052Z,32.83
2023-01-09T02:59:13.245Z,29.20
2023-01-09T03:02:26.053Z,31.50
2023-01-09T03:05:01.723Z,29.70
2023-01-09T03:07:38.397Z,29.80
2023-01-09T03:10:41.676Z,29.02
2023-01-09T03:13:13.008Z,33.47
2023-01-09T03:15:41.765Z,37.05
2023-01-09T03:18:10.560Z,31.75
2023-01-09T03:20:38.573Z,31.02
2023-01-09T03:23:07.084Z,38.85
2023-01-09T03:25:35.027Z,33.47
2023-01-09T03:28:05.472Z,27.55
2023-01-09T03:30:34.173Z,32.45
2023-01-09T03:33:03.495Z,36.60
2023-01-09T03:35:31.442Z,26.15
2023-01-09T03:37:59.340Z,34.13
2023-01-09T03:40:29.179Z,27.55
2023-01-09T03:42:58.295Z,37.20
2023-01-09T03:45:26.501Z,40.58
2023-01-09T03:47:54.516Z,35.40
2023-01-09T03:50:22.257Z,24.45
2023-01-09T03:52:50.216Z,31.67
2023-01-09T03:55:18.405Z,35.20
2023-01-09T03:57:46.290Z,33.97
2023-01-09T04:00:14.385Z,24.42
2023-01-09T04:02:43.337Z,34.00
2023-01-09T04:05:11.159Z,40.75
2023-01-09T04:07:40.057Z,38.85
2023-01-09T04:10:08.525Z,37.67
2023-01-09T04:12:36.295Z,34.60
2023-01-09T04:15:06.010Z,33.35
2023-01-09T04:17:35.863Z,31.48
2023-01-09T04:20:04.331Z,29.40
2023-01-09T04:22:33.201Z,37.38
2023-01-09T04:25:01.126Z,32.55
2023-01-09T04:27:28.800Z,30.17
2023-01-09T04:29:57.223Z,32.40
2023-01-09T04:32:24.908Z,37.65
2023-01-09T04:34:54.920Z,39.83
2023-01-09T04:37:22.926Z,39.10
2023-01-09T04:39:51.568Z,37.45
2023-01-09T04:42:19.866Z,36.38
2023-01-09T04:44:47.683Z,34.20
2023-01-09T04:47:16.183Z,30.95
2023-01-09T04:49:43.818Z,31.35
2023-01-09T04:52:11.651Z,44.83
2023-01-09T04:54:39.696Z,40.90
2023-01-09T04:57:07.538Z,48.17
2023-01-09T04:59:36.393Z,46.42
2023-01-09T05:02:04.282Z,48.45
2023-01-09T05:04:32.357Z,34.80
2023-01-09T05:07:00.705Z,25.90
2023-01-09T05:09:28.842Z,32.25
2023-01-09T05:11:57.199Z,36.25
2023-01-09T05:14:25.070Z,29.60
2023-01-09T05:16:53.006Z,37.42
2023-01-09T05:19:21.758Z,33.28
2023-01-09T05:21:49.767Z,30.33
2023-01-09T05:24:18.370Z,42.47
2023-01-09T05:26:46.239Z,34.60
2023-01-09T05:29:14.160Z,35.28
2023-01-09T05:31:41.971Z,46.63
2023-01-09T05:34:10.297Z,41.78
2023-01-09T05:36:38.373Z,49.33
2023-01-09T05:39:07.361Z,55.42
2023-01-09T05:41:35.761Z,48.60
2023-01-09T05:44:05.200Z,35.95
2023-01-09T05:46:35.346Z,35.40
2023-01-09T05:49:03.182Z,38.42
2023-01-09T05:51:32.069Z,34.20
2023-01-09T05:54:00.440Z,36.55
2023-01-09T05:56:30.262Z,28.85
2023-01-09T05:58:58.117Z,33.40
2023-01-09T06:01:25.899Z,23.73
2023-01-09T06:03:53.711Z,30.60
2023-01-09T06:06:22.930Z,42.38
2023-01-09T06:08:51.026Z,28.25
2023-01-09T06:11:18.890Z,29.40
2023-01-09T06:13:47.288Z,36.88
2023-01-09T06:16:15.414Z,39.35
2023-01-09T06:18:43.362Z,33.25
2023-01-09T06:21:11.298Z,30.42
2023-01-09T06:23:39.114Z,40.25
2023-01-09T06:26:08.496Z,31.40
2023-01-09T06:28:36.617Z,35.00
2023-01-09T06:31:04.875Z,28.05
2023-01-09T06:33:32.972Z,23.88
2023-01-09T06:36:01.454Z,25.10
2023-01-09T06:38:29.399Z,24.33
2023-01-09T06:40:58.973Z,25.67
2023-01-09T06:43:26.790Z,32.97
2023-01-09T06:45:55.609Z,24.25
2023-01-09T06:48:27.289Z,25.00
2023-01-09T06:50:55.146Z,30.27
2023-01-09T06:53:26.737Z,24.92
2023-01-09T06:55:54.580Z,36.17
2023-01-09T06:58:22.338Z,23.45
2023-01-09T07:00:50.253Z,24.63
2023-01-09T07:03:22.691Z,23.42
2023-01-09T07:05:50.725Z,22.13
2023-01-09T07:08:18.591Z,21.33
2023-01-09T07:10:46.883Z,16.27
2023-01-09T07:13:15.764Z,21.92
2023-01-09T07:15:44.959Z,17.90
2023-01-09T07:18:13.349Z,24.15
2023-01-09T11:11:05.712Z,11.30
2023-01-09T11:13:46.945Z,11.52
2023-01-09T11:16:16.897Z,8.60
2023-01-09T11:18:59.387Z,9.32
2023-01-09T11:21:36.216Z,9.63
2023-01-09T11:24:19.565Z,12.27
2023-01-09T11:26:51.117Z,12.32
2023-01-09T11:29:21.830Z,13.25
2023-01-09T11:31:58.499Z,9.65
2023-01-09T11:34:33.887Z,13.13
2023-01-09T11:37:09.275Z,7.75
2023-01-09T11:39:41.448Z,14.10
2023-01-09T11:42:19.168Z,10.93
2023-01-09T11:44:48.007Z,15.05
2023-01-09T11:47:37.471Z,13.15
2023-01-09T11:50:22.621Z,10.57
2023-01-09T11:53:14.996Z,16.38
2023-01-09T11:55:43.428Z,12.10
2023-01-09T11:58:21.976Z,10.50
2023-01-09T12:01:05.691Z,9.98
2023-01-09T12:04:03.908Z,13.82
2023-01-09T12:06:58.067Z,14.18
2023-01-09T12:09:29.472Z,12.50
2023-01-09T12:12:10.016Z,12.77
2023-01-09T12:14:49.056Z,9.52
2023-01-09T12:17:44.727Z,12.10
2023-01-09T12:20:28.265Z,14.90
2023-01-09T12:23:00.602Z,12.02
2023-01-09T12:25:52.885Z,14.23
2023-01-09T12:28:20.691Z,20.33
2023-01-09T12:30:51.590Z,23.20
2023-01-09T12:33:28.335Z,19.05
2023-01-09T12:36:10.463Z,19.92
2023-01-09T12:38:55.078Z,12.27
2023-01-09T12:41:25.915Z,14.88
2023-01-09T12:44:04.113Z,15.73
2023-01-09T12:46:42.692Z,12.00
2023-01-09T12:49:49.135Z,9.65
2023-01-09T12:52:26.124Z,10.63
2023-01-09T12:55:05.113Z,9.93
2023-01-09T12:57:52.059Z,8.77
2023-01-09T13:00:32.505Z,13.30
2023-01-09T13:03:12.518Z,8.90
2023-01-09T13:05:45.114Z,9.57
2023-01-09T13:08:39.489Z,15.90
2023-01-09T13:11:19.974Z,12.05
2023-01-09T13:14:13.220Z,12.43
2023-01-09T13:16:48.686Z,9.07
2023-01-09T13:19:19.538Z,15.95
2023-01-09T13:21:50.292Z,15.77
2023-01-09T13:24:29.879Z,18.65
2023-01-09T13:27:03.063Z,10.95
2023-01-09T13:29:33.665Z,12.50
2023-01-09T13:32:43.972Z,11.40
2023-01-09T13:35:13.942Z,12.50
2023-01-09T13:37:42.704Z,14.75
2023-01-09T13:40:19.383Z,11.75
2023-01-09T13:43:04.333Z,18.58
2023-01-09T13:45:35.558Z,13.55
2023-01-09T13:48:18.045Z,19.98
2023-01-09T13:50:46.568Z,20.55
2023-01-09T13:53:20.489Z,11.20
2023-01-09T13:55:58.736Z,14.38
2023-01-09T13:58:37.773Z,16.98
2023-01-09T14:01:39.975Z,17.50
2023-01-09T14:04:14.910Z,10.82
2023-01-09T14:06:45.048Z,15.52
2023-01-09T14:09:19.543Z,10.48
2023-01-09T14:11:48.434Z,13.75
2023-01-09T14:14:26.180Z,16.75
2023-01-09T14:16:59.238Z,11.02
2023-01-09T14:19:35.425Z,9.93
2023-01-09T14:22:03.611Z,10.35
2023-01-09T14:24:46.659Z,10.35
2023-01-09T14:28:09.602Z,14.15
2023-01-09T14:31:00.228Z,12.70
2023-01-09T14:33:33.498Z,10.60
2023-01-09T14:36:22.105Z,14.38
2023-01-09T14:39:03.873Z,12.80
2023-01-09T14:41:57.116Z,15.52
2023-01-09T14:44:55.666Z,12.20
2023-01-09T14:47:31.711Z,12.55
2023-01-09T14:50:07.656Z,13.57
2023-01-09T14:52:40.160Z,11.60
2023-01-09T14:55:27.070Z,15.65
2023-01-09T14:57:56.388Z,9.13
2023-01-09T15:00:24.553Z,9.27
2023-01-09T15:02:52.627Z,11.48
2023-01-09T15:05:25.417Z,16.25
2023-01-09T15:07:57.102Z,11.43
2023-01-09T15:10:36.905Z,15.95
2023-01-09T15:13:06.539Z,9.77
2023-01-09T15:15:35.821Z,9.20
2023-01-09T15:18:06.936Z,10.07
2023-01-09T15:20:35.677Z,10.07
2023-01-09T15:23:06.607Z,20.08
2023-01-09T15:25:40.207Z,10.25
2023-01-09T15:28:25.271Z,12.25
2023-01-09T15:31:07.838Z,13.07
2023-01-09T15:33:39.127Z,16.95
2023-01-09T15:36:28.129Z,17.30
2023-01-09T15:38:56.027Z,11.90
2023-01-09T15:41:48.072Z,16.10
2023-01-09T15:44:26.638Z,13.18
2023-01-09T15:46:58.469Z,9.52
2023-01-09T15:49:27.295Z,17.10
2023-01-09T15:51:55.513Z,17.52
2023-01-09T15:54:34.634Z,16.27
2023-01-09T15:57:23.166Z,15.88
2023-01-09T15:59:54.531Z,12.27
2023-01-09T16:02:48.713Z,8.00
2023-01-09T16:05:17.040Z,12.30
2023-01-09T16:07:49.795Z,10.82
2023-01-09T16:10:33.904Z,19.40
2023-01-09T16:13:02.652Z,14.20
2023-01-09T19:48:53.859Z,17.42
2023-01-09T19:51:22.218Z,15.13
2023-01-09T19:56:34.088Z,14.52
2023-01-09T19:59:03.105Z,12.15
2023-01-09T20:01:33.439Z,12.98
2023-01-09T20:04:07.972Z,13.18
2023-01-09T20:06:41.524Z,10.40
2023-01-09T20:09:12.252Z,14.68
2023-01-09T20:11:41.491Z,14.35
2023-01-09T20:14:13.971Z,14.52
2023-01-09T20:16:42.163Z,18.42
2023-01-09T20:19:11.123Z,15.02
2023-01-09T20:21:38.980Z,13.43
2023-01-09T20:24:07.388Z,11.70
2023-01-09T20:26:36.274Z,13.75
2023-01-09T20:29:04.334Z,14.55
2023-01-09T20:31:33.551Z,16.55
2023-01-09T20:34:02.093Z,21.73
2023-01-09T20:36:31.071Z,18.85
2023-01-09T20:39:00.519Z,21.30
2023-01-09T20:41:31.052Z,12.57
2023-01-09T20:44:07.260Z,14.23
2023-01-09T20:46:39.623Z,7.03
2023-01-09T20:49:08.629Z,20.75
2023-01-09T20:51:40.739Z,27.35
2023-01-09T20:54:08.950Z,17.98
2023-01-09T20:56:36.971Z,16.27
2023-01-09T20:59:06.481Z,17.05
2023-01-09T21:01:35.319Z,15.20
2023-01-09T21:04:03.445Z,18.33
2023-01-09T21:06:31.769Z,15.02
2023-01-09T21:08:59.789Z,14.35
2023-01-09T21:11:29.101Z,21.25
2023-01-09T21:13:57.585Z,17.02
2023-01-09T21:16:29.287Z,12.40
2023-01-09T21:18:57.402Z,15.70
2023-01-09T21:21:27.494Z,17.98
2023-01-09T21:23:57.389Z,21.67
2023-01-09T21:26:27.728Z,21.77
2023-01-09T21:28:58.911Z,29.08
2023-01-09T21:31:35.447Z,25.30
2023-01-09T21:34:06.147Z,25.17
2023-01-09T21:36:37.303Z,17.02
2023-01-09T21:39:08.350Z,17.98
2023-01-09T21:41:55.181Z,15.95
2023-01-09T21:44:41.967Z,23.13
2023-01-09T21:47:10.752Z,14.80
2023-01-09T21:49:42.819Z,20.02
2023-01-09T21:52:12.967Z,11.88
2023-01-09T21:54:41.603Z,19.30
2023-01-09T21:57:11.190Z,24.20
2023-01-09T21:59:39.365Z,18.00
2023-01-09T22:02:07.235Z,18.95
2023-01-09T22:04:35.425Z,18.85
2023-01-09T22:07:03.448Z,19.02
2023-01-09T22:09:32.667Z,24.90
2023-01-09T22:12:00.640Z,27.35
2023-01-09T22:14:32.684Z,31.75
2023-01-09T22:17:00.949Z,23.55
2023-01-09T22:19:30.900Z,22.05
2023-01-09T22:22:00.025Z,17.98
2023-01-09T22:24:32.892Z,29.35
2023-01-09T22:27:03.532Z,21.65
2023-01-09T22:29:32.691Z,25.75
2023-01-09T22:32:00.792Z,20.98
2023-01-09T22:34:28.658Z,22.70
2023-01-09T22:37:02.965Z,14.52
2023-01-09T22:39:31.035Z,21.65
2023-01-09T22:41:59.988Z,13.48
2023-01-09T22:44:29.215Z,19.45
2023-01-09T22:46:59.509Z,18.13
2023-01-09T22:49:30.198Z,20.80
2023-01-09T22:52:01.675Z,19.42
2023-01-09T22:54:29.814Z,15.43
2023-01-09T22:56:59.075Z,10.10
2023-01-09T22:59:27.504Z,14.20
2023-01-09T23:01:58.044Z,14.80
2023-01-09T23:04:26.189Z,21.92
2023-01-09T23:06:55.134Z,18.48
2023-01-09T23:09:22.937Z,17.20
2023-01-09T23:12:03.460Z,15.13
2023-01-09T23:14:38.456Z,13.57
2023-01-09T23:17:07.855Z,11.98
2023-01-09T23:19:35.803Z,13.00
2023-01-09T23:22:04.598Z,13.05
2023-01-09T23:24:32.755Z,16.10
2023-01-09T23:27:00.748Z,10.63
2023-01-09T23:29:30.068Z,20.67
2023-01-09T23:31:58.298Z,15.35
2023-01-09T23:34:27.726Z,22.30
2023-01-09T23:36:58.148Z,15.70
2023-01-09T23:39:26.304Z,19.35
2023-01-09T23:42:13.566Z,17.25
2023-01-09T23:44:42.426Z,26.30
2023-01-09T23:47:10.331Z,21.33
2023-01-09T23:49:38.937Z,34.42
2023-01-09T23:52:08.729Z,24.08
2023-01-09T23:54:36.785Z,26.23
2023-01-09T23:57:05.011Z,44.45
2023-01-09T23:59:33.055Z,33.35
